sensor_id;sensor_type;location;lat;lon;timestamp;pressure;altitude;pressure_sealevel;temperature;humidity
64889;BME280;51386;53.082;8.816;2024-02-15T00:01:16;101428.47;;;15.54;74.40
64889;BME280;51386;53.082;8.816;2024-02-15T00:03:44;101427.63;;;15.54;74.32
64889;BME280;51386;53.082;8.816;2024-02-15T00:06:13;101423.97;;;15.55;73.97
64889;BME280;51386;53.082;8.816;2024-02-15T00:08:41;101428.06;;;15.57;73.71
64889;BME280;51386;53.082;8.816;2024-02-15T00:11:10;101423.59;;;15.58;74.29
64889;BME280;51386;53.082;8.816;2024-02-15T00:13:38;101424.84;;;15.62;73.86
64889;BME280;51386;53.082;8.816;2024-02-15T00:16:07;101427.13;;;15.65;73.96
64889;BME280;51386;53.082;8.816;2024-02-15T00:18:35;101428.56;;;15.68;73.85
64889;BME280;51386;53.082;8.816;2024-02-15T00:21:05;101422.44;;;15.67;73.80
64889;BME280;51386;53.082;8.816;2024-02-15T00:23:33;101430.22;;;15.69;73.70
64889;BME280;51386;53.082;8.816;2024-02-15T00:26:02;101429.41;;;15.68;73.73
64889;BME280;51386;53.082;8.816;2024-02-15T00:28:30;101431.84;;;15.70;73.72
64889;BME280;51386;53.082;8.816;2024-02-15T00:30:59;101430.66;;;15.72;73.85
64889;BME280;51386;53.082;8.816;2024-02-15T00:33:27;101437.63;;;15.73;73.62
64889;BME280;51386;53.082;8.816;2024-02-15T00:35:56;101432.94;;;15.75;73.55
64889;BME280;51386;53.082;8.816;2024-02-15T00:38:25;101437.22;;;15.76;73.65
64889;BME280;51386;53.082;8.816;2024-02-15T00:40:54;101430.06;;;15.77;73.56
64889;BME280;51386;53.082;8.816;2024-02-15T00:43:22;101433.56;;;15.77;73.62
64889;BME280;51386;53.082;8.816;2024-02-15T00:45:51;101430.91;;;15.77;73.43
64889;BME280;51386;53.082;8.816;2024-02-15T00:48:19;101437.88;;;15.78;73.65
64889;BME280;51386;53.082;8.816;2024-02-15T00:50:48;101429.91;;;15.78;73.65
64889;BME280;51386;53.082;8.816;2024-02-15T00:53:16;101431.91;;;15.76;73.46
64889;BME280;51386;53.082;8.816;2024-02-15T00:55:45;101434.75;;;15.75;73.53
64889;BME280;51386;53.082;8.816;2024-02-15T00:58:13;101437.63;;;15.73;73.85
64889;BME280;51386;53.082;8.816;2024-02-15T01:00:42;101441.91;;;15.74;73.63
64889;BME280;51386;53.082;8.816;2024-02-15T01:03:10;101443.34;;;15.77;73.51
64889;BME280;51386;53.082;8.816;2024-02-15T01:05:39;101442.97;;;15.80;73.53
64889;BME280;51386;53.082;8.816;2024-02-15T01:08:07;101435.22;;;15.78;73.70
64889;BME280;51386;53.082;8.816;2024-02-15T01:10:37;101440.13;;;15.81;73.50
64889;BME280;51386;53.082;8.816;2024-02-15T01:13:06;101442.78;;;15.81;73.43
64889;BME280;51386;53.082;8.816;2024-02-15T01:15:34;101451.56;;;15.82;73.36
64889;BME280;51386;53.082;8.816;2024-02-15T01:18:05;101454.03;;;15.83;73.40
64889;BME280;51386;53.082;8.816;2024-02-15T01:20:33;101458.53;;;15.83;73.52
64889;BME280;51386;53.082;8.816;2024-02-15T01:23:03;101449.75;;;15.82;73.27
64889;BME280;51386;53.082;8.816;2024-02-15T01:25:33;101451.38;;;15.83;73.54
64889;BME280;51386;53.082;8.816;2024-02-15T01:28:02;101447.09;;;15.82;73.46
64889;BME280;51386;53.082;8.816;2024-02-15T01:30:30;101447.47;;;15.79;73.34
64889;BME280;51386;53.082;8.816;2024-02-15T01:33:00;101445.84;;;15.78;73.47
64889;BME280;51386;53.082;8.816;2024-02-15T01:35:28;101445.00;;;15.78;74.00
64889;BME280;51386;53.082;8.816;2024-02-15T01:37:57;101447.66;;;15.78;73.66
64889;BME280;51386;53.082;8.816;2024-02-15T01:40:25;101443.19;;;15.78;73.50
64889;BME280;51386;53.082;8.816;2024-02-15T01:42:54;101440.53;;;15.78;73.63
64889;BME280;51386;53.082;8.816;2024-02-15T01:45:23;101442.16;;;15.79;73.17
64889;BME280;51386;53.082;8.816;2024-02-15T01:47:53;101442.16;;;15.79;73.59
64889;BME280;51386;53.082;8.816;2024-02-15T01:50:23;101449.13;;;15.80;73.67
64889;BME280;51386;53.082;8.816;2024-02-15T01:52:55;101445.63;;;15.80;73.44
64889;BME280;51386;53.082;8.816;2024-02-15T01:55:25;101442.16;;;15.79;73.59
64889;BME280;51386;53.082;8.816;2024-02-15T01:57:54;101446.63;;;15.79;73.50
64889;BME280;51386;53.082;8.816;2024-02-15T02:00:23;101444.81;;;15.79;73.70
64889;BME280;51386;53.082;8.816;2024-02-15T02:02:57;101441.16;;;15.80;73.52
64889;BME280;51386;53.082;8.816;2024-02-15T02:05:31;101441.97;;;15.81;73.63
64889;BME280;51386;53.082;8.816;2024-02-15T02:07:59;101437.28;;;15.83;73.65
64889;BME280;51386;53.082;8.816;2024-02-15T02:10:32;101434.44;;;15.84;73.46
64889;BME280;51386;53.082;8.816;2024-02-15T02:13:01;101436.09;;;15.85;73.43
64889;BME280;51386;53.082;8.816;2024-02-15T02:15:34;101441.41;;;15.85;73.38
64889;BME280;51386;53.082;8.816;2024-02-15T02:18:03;101432.59;;;15.85;73.33
64889;BME280;51386;53.082;8.816;2024-02-15T02:20:37;101449.38;;;15.85;73.76
64889;BME280;51386;53.082;8.816;2024-02-15T02:23:26;101448.09;;;15.81;73.31
64889;BME280;51386;53.082;8.816;2024-02-15T02:25:57;101444.06;;;15.85;73.45
64889;BME280;51386;53.082;8.816;2024-02-15T02:28:25;101432.41;;;15.86;73.54
64889;BME280;51386;53.082;8.816;2024-02-15T02:30:54;101423.25;;;15.89;73.67
64889;BME280;51386;53.082;8.816;2024-02-15T02:33:22;101425.69;;;15.90;73.43
64889;BME280;51386;53.082;8.816;2024-02-15T02:35:53;101408.75;;;15.91;73.54
64889;BME280;51386;53.082;8.816;2024-02-15T02:38:21;101413.25;;;15.91;73.28
64889;BME280;51386;53.082;8.816;2024-02-15T02:40:50;101415.91;;;15.91;73.33
64889;BME280;51386;53.082;8.816;2024-02-15T02:43:18;101420.22;;;15.92;73.32
64889;BME280;51386;53.082;8.816;2024-02-15T02:45:47;101421.03;;;15.92;73.43
64889;BME280;51386;53.082;8.816;2024-02-15T02:48:15;101423.69;;;15.92;73.34
64889;BME280;51386;53.082;8.816;2024-02-15T02:50:45;101440.63;;;15.91;73.34
64889;BME280;51386;53.082;8.816;2024-02-15T02:53:14;101437.13;;;15.91;73.08
64889;BME280;51386;53.082;8.816;2024-02-15T02:55:43;101435.31;;;15.91;73.27
64889;BME280;51386;53.082;8.816;2024-02-15T02:58:12;101449.59;;;15.90;72.93
64889;BME280;51386;53.082;8.816;2024-02-15T03:00:41;101440.81;;;15.90;73.36
64889;BME280;51386;53.082;8.816;2024-02-15T03:03:10;101436.31;;;15.90;73.29
64889;BME280;51386;53.082;8.816;2024-02-15T03:05:39;101445.09;;;15.91;73.27
64889;BME280;51386;53.082;8.816;2024-02-15T03:08:09;101438.97;;;15.90;73.13
64889;BME280;51386;53.082;8.816;2024-02-15T03:10:38;101443.28;;;15.91;73.24
64889;BME280;51386;53.082;8.816;2024-02-15T03:13:07;101448.38;;;15.93;73.16
64889;BME280;51386;53.082;8.816;2024-02-15T03:15:38;101445.56;;;15.94;73.22
64889;BME280;51386;53.082;8.816;2024-02-15T03:18:07;101439.22;;;15.95;73.17
64889;BME280;51386;53.082;8.816;2024-02-15T03:20:39;101449.22;;;15.93;73.03
64889;BME280;51386;53.082;8.816;2024-02-15T03:23:08;101449.41;;;15.92;73.13
64889;BME280;51386;53.082;8.816;2024-02-15T03:25:36;101441.25;;;15.93;73.07
64889;BME280;51386;53.082;8.816;2024-02-15T03:28:05;101447.34;;;15.87;72.95
64889;BME280;51386;53.082;8.816;2024-02-15T03:30:34;101443.03;;;15.86;73.31
64889;BME280;51386;53.082;8.816;2024-02-15T03:33:03;101445.06;;;15.84;73.14
64889;BME280;51386;53.082;8.816;2024-02-15T03:35:34;101445.88;;;15.85;73.13
64889;BME280;51386;53.082;8.816;2024-02-15T03:38:03;101443.03;;;15.86;73.24
64889;BME280;51386;53.082;8.816;2024-02-15T03:40:31;101440.19;;;15.88;73.07
64889;BME280;51386;53.082;8.816;2024-02-15T03:43:00;101449.59;;;15.90;73.21
64889;BME280;51386;53.082;8.816;2024-02-15T03:45:29;101449.59;;;15.90;73.14
64889;BME280;51386;53.082;8.816;2024-02-15T03:47:57;101453.06;;;15.91;72.99
64889;BME280;51386;53.082;8.816;2024-02-15T03:50:26;101452.25;;;15.90;72.88
64889;BME280;51386;53.082;8.816;2024-02-15T03:52:54;101453.91;;;15.91;73.06
64889;BME280;51386;53.082;8.816;2024-02-15T03:55:23;101451.03;;;15.93;72.88
64889;BME280;51386;53.082;8.816;2024-02-15T03:57:53;101458.84;;;15.94;73.15
64889;BME280;51386;53.082;8.816;2024-02-15T04:00:23;101457.19;;;15.93;72.69
64889;BME280;51386;53.082;8.816;2024-02-15T04:02:53;101468.63;;;15.94;72.80
64889;BME280;51386;53.082;8.816;2024-02-15T04:05:21;101462.31;;;15.95;72.84
64889;BME280;51386;53.082;8.816;2024-02-15T04:07:51;101467.63;;;15.95;72.77
64889;BME280;51386;53.082;8.816;2024-02-15T04:10:21;101469.44;;;15.94;72.37
64889;BME280;51386;53.082;8.816;2024-02-15T04:12:56;101471.28;;;15.94;72.71
64889;BME280;51386;53.082;8.816;2024-02-15T04:15:26;101475.75;;;15.93;72.49
64889;BME280;51386;53.082;8.816;2024-02-15T04:17:54;101475.75;;;15.93;72.66
64889;BME280;51386;53.082;8.816;2024-02-15T04:20:24;101459.81;;;15.93;72.55
64889;BME280;51386;53.082;8.816;2024-02-15T04:22:53;101465.13;;;15.93;72.55
64889;BME280;51386;53.082;8.816;2024-02-15T04:25:22;101461.47;;;15.94;72.61
64889;BME280;51386;53.082;8.816;2024-02-15T04:27:55;101463.09;;;15.95;72.55
64889;BME280;51386;53.082;8.816;2024-02-15T04:30:25;101460.09;;;15.98;72.42
64889;BME280;51386;53.082;8.816;2024-02-15T04:32:54;101460.91;;;15.99;72.28
64889;BME280;51386;53.082;8.816;2024-02-15T04:35:22;101468.03;;;15.98;72.28
64889;BME280;51386;53.082;8.816;2024-02-15T04:37:51;101463.75;;;15.97;72.19
64889;BME280;51386;53.082;8.816;2024-02-15T04:40:21;101465.59;;;15.97;72.20
64889;BME280;51386;53.082;8.816;2024-02-15T04:42:49;101464.75;;;15.96;71.97
64889;BME280;51386;53.082;8.816;2024-02-15T04:45:17;101469.25;;;15.96;72.23
64889;BME280;51386;53.082;8.816;2024-02-15T04:47:57;101471.06;;;15.95;72.21
64889;BME280;51386;53.082;8.816;2024-02-15T04:50:30;101473.94;;;15.94;72.02
64889;BME280;51386;53.082;8.816;2024-02-15T04:52:58;101475.13;;;15.91;71.98
64889;BME280;51386;53.082;8.816;2024-02-15T04:55:26;101473.31;;;15.92;72.22
64889;BME280;51386;53.082;8.816;2024-02-15T04:57:59;101481.44;;;15.90;72.16
64889;BME280;51386;53.082;8.816;2024-02-15T05:00:28;101473.31;;;15.92;72.24
64889;BME280;51386;53.082;8.816;2024-02-15T05:02:56;101468.81;;;15.92;72.01
64889;BME280;51386;53.082;8.816;2024-02-15T05:05:26;101474.13;;;15.92;72.10
64889;BME280;51386;53.082;8.816;2024-02-15T05:07:55;101470.44;;;15.93;72.04
64889;BME280;51386;53.082;8.816;2024-02-15T05:10:24;101469.44;;;15.94;72.28
64889;BME280;51386;53.082;8.816;2024-02-15T05:12:53;101475.38;;;15.96;72.25
64889;BME280;51386;53.082;8.816;2024-02-15T05:15:23;101473.72;;;15.95;72.11
64889;BME280;51386;53.082;8.816;2024-02-15T05:17:53;101478.03;;;15.96;72.19
64889;BME280;51386;53.082;8.816;2024-02-15T05:20:22;101471.06;;;15.95;72.32
64889;BME280;51386;53.082;8.816;2024-02-15T05:22:55;101480.44;;;15.91;72.22
64889;BME280;51386;53.082;8.816;2024-02-15T05:25:23;101478.00;;;15.90;72.44
64889;BME280;51386;53.082;8.816;2024-02-15T05:27:54;101476.34;;;15.89;72.55
64889;BME280;51386;53.082;8.816;2024-02-15T05:30:27;101475.91;;;15.85;72.45
64889;BME280;51386;53.082;8.816;2024-02-15T05:32:55;101478.94;;;15.82;72.81
64889;BME280;51386;53.082;8.816;2024-02-15T05:35:24;101472.38;;;15.78;72.66
64889;BME280;51386;53.082;8.816;2024-02-15T05:37:54;101471.91;;;15.75;73.19
64889;BME280;51386;53.082;8.816;2024-02-15T05:40:24;101466.19;;;15.71;73.24
64889;BME280;51386;53.082;8.816;2024-02-15T05:42:56;101471.03;;;15.68;73.42
64889;BME280;51386;53.082;8.816;2024-02-15T05:47:54;101475.00;;;15.57;74.11
64889;BME280;51386;53.082;8.816;2024-02-15T05:50:23;101469.25;;;15.53;74.10
64889;BME280;51386;53.082;8.816;2024-02-15T05:52:51;101475.41;;;15.54;73.95
64889;BME280;51386;53.082;8.816;2024-02-15T05:55:22;101470.47;;;15.51;74.36
64889;BME280;51386;53.082;8.816;2024-02-15T05:57:51;101466.16;;;15.50;74.48
64889;BME280;51386;53.082;8.816;2024-02-15T06:00:19;101469.22;;;15.47;74.70
64889;BME280;51386;53.082;8.816;2024-02-15T06:02:50;101463.59;;;15.42;74.99
64889;BME280;51386;53.082;8.816;2024-02-15T06:05:19;101459.50;;;15.39;74.95
64889;BME280;51386;53.082;8.816;2024-02-15T06:07:48;101459.69;;;15.38;75.01
64889;BME280;51386;53.082;8.816;2024-02-15T06:10:17;101454.56;;;15.36;75.38
64889;BME280;51386;53.082;8.816;2024-02-15T06:12:45;101458.03;;;15.37;75.29
64889;BME280;51386;53.082;8.816;2024-02-15T06:15:14;101456.38;;;15.36;75.07
64889;BME280;51386;53.082;8.816;2024-02-15T06:17:46;101456.38;;;15.36;75.56
64889;BME280;51386;53.082;8.816;2024-02-15T06:20:15;101452.94;;;15.35;75.37
64889;BME280;51386;53.082;8.816;2024-02-15T06:22:50;101453.09;;;15.34;75.38
64889;BME280;51386;53.082;8.816;2024-02-15T06:25:20;101457.56;;;15.33;75.56
64889;BME280;51386;53.082;8.816;2024-02-15T06:27:49;101453.88;;;15.28;76.13
64889;BME280;51386;53.082;8.816;2024-02-15T06:30:19;101448.09;;;15.24;76.46
64889;BME280;51386;53.082;8.816;2024-02-15T06:33:06;101449.50;;;15.20;76.10
64889;BME280;51386;53.082;8.816;2024-02-15T06:35:53;101449.69;;;15.19;76.64
64889;BME280;51386;53.082;8.816;2024-02-15T06:38:40;101442.72;;;15.18;76.65
64889;BME280;51386;53.082;8.816;2024-02-15T06:41:27;101442.72;;;15.18;76.59
64889;BME280;51386;53.082;8.816;2024-02-15T06:43:57;101446.00;;;15.20;76.85
64889;BME280;51386;53.082;8.816;2024-02-15T06:46:26;101448.03;;;15.18;76.77
64889;BME280;51386;53.082;8.816;2024-02-15T06:48:54;101441.72;;;15.19;76.85
64889;BME280;51386;53.082;8.816;2024-02-15T06:51:23;101446.38;;;15.17;77.08
64889;BME280;51386;53.082;8.816;2024-02-15T06:53:52;101442.09;;;15.16;77.19
64889;BME280;51386;53.082;8.816;2024-02-15T06:56:24;101446.38;;;15.17;77.07
64889;BME280;51386;53.082;8.816;2024-02-15T06:58:52;101448.03;;;15.18;76.88
64889;BME280;51386;53.082;8.816;2024-02-15T07:01:24;101434.78;;;15.18;76.97
64889;BME280;51386;53.082;8.816;2024-02-15T07:03:53;101449.69;;;15.19;77.49
64889;BME280;51386;53.082;8.816;2024-02-15T07:06:25;101450.94;;;15.23;76.67
64889;BME280;51386;53.082;8.816;2024-02-15T07:08:55;101456.53;;;15.28;76.85
64889;BME280;51386;53.082;8.816;2024-02-15T07:11:25;101454.50;;;15.30;76.50
64889;BME280;51386;53.082;8.816;2024-02-15T07:13:53;101448.16;;;15.31;76.84
64889;BME280;51386;53.082;8.816;2024-02-15T07:16:22;101459.22;;;15.34;76.81
64889;BME280;51386;53.082;8.816;2024-02-15T07:18:51;101454.13;;;15.33;76.63
64889;BME280;51386;53.082;8.816;2024-02-15T07:21:21;101453.09;;;15.34;76.59
64889;BME280;51386;53.082;8.816;2024-02-15T07:23:56;101446.78;;;15.35;76.45
64889;BME280;51386;53.082;8.816;2024-02-15T07:26:25;101451.91;;;15.36;76.62
64889;BME280;51386;53.082;8.816;2024-02-15T07:28:54;101449.44;;;15.35;76.37
64889;BME280;51386;53.082;8.816;2024-02-15T07:31:27;101445.78;;;15.36;76.24
64889;BME280;51386;53.082;8.816;2024-02-15T07:33:57;101450.72;;;15.39;76.37
64889;BME280;51386;53.082;8.816;2024-02-15T07:36:26;101449.50;;;15.41;76.39
64889;BME280;51386;53.082;8.816;2024-02-15T07:38:55;101457.66;;;15.40;76.00
64889;BME280;51386;53.082;8.816;2024-02-15T07:41:29;101457.28;;;15.43;76.20
64889;BME280;51386;53.082;8.816;2024-02-15T07:43:58;101450.34;;;15.42;76.32
64889;BME280;51386;53.082;8.816;2024-02-15T07:46:28;101453.00;;;15.42;76.02
64889;BME280;51386;53.082;8.816;2024-02-15T07:48:57;101457.28;;;15.43;76.12
64889;BME280;51386;53.082;8.816;2024-02-15T07:51:36;101458.94;;;15.44;76.19
64889;BME280;51386;53.082;8.816;2024-02-15T07:54:05;101448.81;;;15.47;75.87
64889;BME280;51386;53.082;8.816;2024-02-15T07:56:34;101450.06;;;15.51;75.96
64889;BME280;51386;53.082;8.816;2024-02-15T07:59:03;101461.09;;;15.55;75.74
64889;BME280;51386;53.082;8.816;2024-02-15T08:01:34;101458.44;;;15.55;75.54
64889;BME280;51386;53.082;8.816;2024-02-15T08:04:02;101455.00;;;15.54;75.51
64889;BME280;51386;53.082;8.816;2024-02-15T08:06:31;101459.06;;;15.57;75.76
64889;BME280;51386;53.082;8.816;2024-02-15T08:09:01;101461.56;;;15.58;75.52
64889;BME280;51386;53.082;8.816;2024-02-15T08:11:29;101463.19;;;15.59;75.41
64889;BME280;51386;53.082;8.816;2024-02-15T08:13:58;101458.34;;;15.63;75.07
64889;BME280;51386;53.082;8.816;2024-02-15T08:16:29;101454.84;;;15.63;75.31
64889;BME280;51386;53.082;8.816;2024-02-15T08:18:57;101453.28;;;15.68;75.25
64889;BME280;51386;53.082;8.816;2024-02-15T08:21:27;101451.25;;;15.70;74.88
64889;BME280;51386;53.082;8.816;2024-02-15T08:24:04;101447.19;;;15.74;74.99
64889;BME280;51386;53.082;8.816;2024-02-15T08:26:38;101452.13;;;15.77;74.96
64889;BME280;51386;53.082;8.816;2024-02-15T08:29:07;101449.13;;;15.80;74.66
64889;BME280;51386;53.082;8.816;2024-02-15T08:31:36;101450.56;;;15.83;74.75
64889;BME280;51386;53.082;8.816;2024-02-15T08:34:04;101450.38;;;15.84;74.57
64889;BME280;51386;53.082;8.816;2024-02-15T08:36:34;101447.72;;;15.84;74.44
64889;BME280;51386;53.082;8.816;2024-02-15T08:39:02;101457.31;;;15.85;74.34
64889;BME280;51386;53.082;8.816;2024-02-15T08:41:32;101451.63;;;15.88;74.14
64889;BME280;51386;53.082;8.816;2024-02-15T08:44:00;101450.00;;;15.87;74.17
64889;BME280;51386;53.082;8.816;2024-02-15T08:46:29;101440.19;;;15.88;74.21
64889;BME280;51386;53.082;8.816;2024-02-15T08:48:59;101455.09;;;15.89;74.27
64889;BME280;51386;53.082;8.816;2024-02-15T08:51:29;101445.94;;;15.91;74.44
64889;BME280;51386;53.082;8.816;2024-02-15T08:53:58;101440.63;;;15.91;74.33
64889;BME280;51386;53.082;8.816;2024-02-15T08:56:28;101447.38;;;15.94;74.28
64889;BME280;51386;53.082;8.816;2024-02-15T08:58:56;101443.16;;;15.99;74.39
64889;BME280;51386;53.082;8.816;2024-02-15T09:01:28;101443.16;;;15.99;74.15
64889;BME280;51386;53.082;8.816;2024-02-15T09:03:58;101439.09;;;16.03;74.07
64889;BME280;51386;53.082;8.816;2024-02-15T09:06:26;101440.34;;;16.07;73.89
64889;BME280;51386;53.082;8.816;2024-02-15T09:08:55;101437.91;;;16.12;74.00
64889;BME280;51386;53.082;8.816;2024-02-15T09:11:29;101435.50;;;16.17;73.70
64889;BME280;51386;53.082;8.816;2024-02-15T09:13:58;101438.81;;;16.26;73.61
64889;BME280;51386;53.082;8.816;2024-02-15T09:16:27;101438.06;;;16.32;73.55
64889;BME280;51386;53.082;8.816;2024-02-15T09:18:55;101439.13;;;16.38;73.36
64889;BME280;51386;53.082;8.816;2024-02-15T09:21:24;101434.03;;;16.43;73.00
64889;BME280;51386;53.082;8.816;2024-02-15T09:23:53;101430.16;;;16.45;72.82
64889;BME280;51386;53.082;8.816;2024-02-15T09:26:21;101428.34;;;16.46;72.67
64889;BME280;51386;53.082;8.816;2024-02-15T09:28:50;101425.91;;;16.51;72.96
64889;BME280;51386;53.082;8.816;2024-02-15T09:31:19;101419.41;;;16.53;72.50
64889;BME280;51386;53.082;8.816;2024-02-15T09:33:47;101429.84;;;16.55;72.29
64889;BME280;51386;53.082;8.816;2024-02-15T09:36:16;101429.03;;;16.54;72.31
64889;BME280;51386;53.082;8.816;2024-02-15T09:38:44;101428.38;;;16.52;72.42
64889;BME280;51386;53.082;8.816;2024-02-15T09:41:14;101432.91;;;16.52;72.24
64889;BME280;51386;53.082;8.816;2024-02-15T09:43:43;101429.56;;;16.50;72.14
64889;BME280;51386;53.082;8.816;2024-02-15T09:46:12;101435.31;;;16.47;72.51
64889;BME280;51386;53.082;8.816;2024-02-15T09:48:50;101422.97;;;16.39;72.14
64889;BME280;51386;53.082;8.816;2024-02-15T09:51:20;101421.53;;;16.37;72.57
64889;BME280;51386;53.082;8.816;2024-02-15T09:53:49;101430.91;;;16.33;72.80
64889;BME280;51386;53.082;8.816;2024-02-15T09:56:20;101429.88;;;16.34;72.90
64889;BME280;51386;53.082;8.816;2024-02-15T09:58:50;101431.94;;;16.32;72.88
64889;BME280;51386;53.082;8.816;2024-02-15T10:01:22;101425.38;;;16.27;72.75
64889;BME280;51386;53.082;8.816;2024-02-15T10:03:52;101426.19;;;16.28;72.67
64889;BME280;51386;53.082;8.816;2024-02-15T10:06:20;101427.41;;;16.25;72.91
64889;BME280;51386;53.082;8.816;2024-02-15T10:08:50;101434.75;;;16.23;72.95
64889;BME280;51386;53.082;8.816;2024-02-15T10:11:19;101436.75;;;16.21;73.03
64889;BME280;51386;53.082;8.816;2024-02-15T10:13:48;101428.16;;;16.19;72.91
64889;BME280;51386;53.082;8.816;2024-02-15T10:16:34;101440.78;;;16.11;73.50
64889;BME280;51386;53.082;8.816;2024-02-15T10:19:10;101425.66;;;16.11;73.42
64889;BME280;51386;53.082;8.816;2024-02-15T10:21:39;101429.34;;;16.10;73.30
64889;BME280;51386;53.082;8.816;2024-02-15T10:24:12;101442.00;;;16.08;73.50
64889;BME280;51386;53.082;8.816;2024-02-15T10:26:41;101438.31;;;16.09;73.57
64889;BME280;51386;53.082;8.816;2024-02-15T10:29:11;101438.72;;;16.06;73.77
64889;BME280;51386;53.082;8.816;2024-02-15T10:31:52;101427.22;;;15.99;73.95
64889;BME280;51386;53.082;8.816;2024-02-15T10:34:21;101431.31;;;16.02;74.34
64889;BME280;51386;53.082;8.816;2024-02-15T10:36:51;101432.31;;;16.01;74.30
64889;BME280;51386;53.082;8.816;2024-02-15T10:39:20;101419.88;;;16.01;74.51
64889;BME280;51386;53.082;8.816;2024-02-15T10:41:53;101428.41;;;15.97;74.76
64889;BME280;51386;53.082;8.816;2024-02-15T10:44:24;101416.16;;;15.96;74.75
64889;BME280;51386;53.082;8.816;2024-02-15T10:46:54;101419.00;;;15.94;74.66
64889;BME280;51386;53.082;8.816;2024-02-15T10:49:24;101416.34;;;15.94;75.08
64889;BME280;51386;53.082;8.816;2024-02-15T10:51:58;101406.34;;;15.96;75.14
64889;BME280;51386;53.082;8.816;2024-02-15T10:54:57;101408.75;;;15.91;75.21
64889;BME280;51386;53.082;8.816;2024-02-15T10:57:33;101403.44;;;15.91;75.47
64889;BME280;51386;53.082;8.816;2024-02-15T11:00:07;101404.28;;;15.92;75.34
64889;BME280;51386;53.082;8.816;2024-02-15T11:02:44;101405.47;;;15.89;75.59
64889;BME280;51386;53.082;8.816;2024-02-15T11:05:20;101397.72;;;15.88;75.71
64889;BME280;51386;53.082;8.816;2024-02-15T11:07:51;101403.03;;;15.88;75.67
64889;BME280;51386;53.082;8.816;2024-02-15T11:10:22;101400.16;;;15.89;75.56
64889;BME280;51386;53.082;8.816;2024-02-15T11:12:51;101402.03;;;15.95;75.20
64889;BME280;51386;53.082;8.816;2024-02-15T11:15:44;101388.53;;;15.90;75.46
64889;BME280;51386;53.082;8.816;2024-02-15T11:18:48;101394.03;;;15.89;75.22
64889;BME280;51386;53.082;8.816;2024-02-15T11:21:17;101390.41;;;15.96;75.19
64889;BME280;51386;53.082;8.816;2024-02-15T11:23:46;101393.31;;;16.01;75.18
64889;BME280;51386;53.082;8.816;2024-02-15T11:26:46;101390.41;;;15.96;75.17
64889;BME280;51386;53.082;8.816;2024-02-15T11:29:56;101399.00;;;15.98;74.78
64889;BME280;51386;53.082;8.816;2024-02-15T11:32:44;101388.00;;;16.01;74.64
64889;BME280;51386;53.082;8.816;2024-02-15T11:35:23;101383.94;;;16.05;74.47
64889;BME280;51386;53.082;8.816;2024-02-15T11:37:58;101378.63;;;16.05;74.42
64889;BME280;51386;53.082;8.816;2024-02-15T11:40:59;101383.56;;;16.08;74.39
64889;BME280;51386;53.082;8.816;2024-02-15T11:46:18;101383.06;;;15.98;74.22
64889;BME280;51386;53.082;8.816;2024-02-15T11:48:51;101382.88;;;16.00;74.37
64889;BME280;51386;53.082;8.816;2024-02-15T11:51:33;101376.34;;;16.02;74.63
64889;BME280;51386;53.082;8.816;2024-02-15T11:54:11;101381.91;;;16.07;74.47
64889;BME280;51386;53.082;8.816;2024-02-15T11:59:16;101380.69;;;16.10;73.88
64889;BME280;51386;53.082;8.816;2024-02-15T12:01:57;101381.53;;;16.10;73.90
64889;BME280;51386;53.082;8.816;2024-02-15T12:04:46;101382.38;;;16.17;73.99
64889;BME280;51386;53.082;8.816;2024-02-15T12:07:33;101374.03;;;16.20;73.89
64889;BME280;51386;53.082;8.816;2024-02-15T12:10:20;101373.00;;;16.21;73.58
64889;BME280;51386;53.082;8.816;2024-02-15T12:13:07;101365.84;;;16.22;73.64
64889;BME280;51386;53.082;8.816;2024-02-15T12:16:15;101359.97;;;16.26;73.72
64889;BME280;51386;53.082;8.816;2024-02-15T12:19:02;101363.66;;;16.32;73.44
64889;BME280;51386;53.082;8.816;2024-02-15T12:21:31;101357.75;;;16.37;73.28
64889;BME280;51386;53.082;8.816;2024-02-15T12:24:01;101367.81;;;16.41;73.13
64889;BME280;51386;53.082;8.816;2024-02-15T12:26:34;101359.63;;;16.43;73.00
64889;BME280;51386;53.082;8.816;2024-02-15T12:29:03;101372.91;;;16.43;72.87
64889;BME280;51386;53.082;8.816;2024-02-15T12:31:31;101363.34;;;16.48;72.83
64889;BME280;51386;53.082;8.816;2024-02-15T12:34:04;101357.63;;;16.45;72.53
64889;BME280;51386;53.082;8.816;2024-02-15T12:36:36;101362.13;;;16.51;72.61
64889;BME280;51386;53.082;8.816;2024-02-15T12:39:07;101360.13;;;16.53;72.68
64889;BME280;51386;53.082;8.816;2024-02-15T12:41:41;101360.56;;;16.56;72.40
64889;BME280;51386;53.082;8.816;2024-02-15T12:44:10;101355.63;;;16.53;72.10
64889;BME280;51386;53.082;8.816;2024-02-15T12:46:39;101364.44;;;16.54;72.14
64889;BME280;51386;53.082;8.816;2024-02-15T12:49:29;101362.13;;;16.51;72.09
64889;BME280;51386;53.082;8.816;2024-02-15T12:52:34;101358.50;;;16.52;72.23
64889;BME280;51386;53.082;8.816;2024-02-15T12:55:09;101358.06;;;16.55;71.91
64889;BME280;51386;53.082;8.816;2024-02-15T12:57:44;101358.06;;;16.55;72.22
64889;BME280;51386;53.082;8.816;2024-02-15T13:00:15;101356.81;;;16.51;71.78
64889;BME280;51386;53.082;8.816;2024-02-15T13:02:50;101359.28;;;16.52;71.96
64889;BME280;51386;53.082;8.816;2024-02-15T13:05:19;101355.00;;;16.51;71.78
64889;BME280;51386;53.082;8.816;2024-02-15T13:07:50;101353.78;;;16.54;71.98
64889;BME280;51386;53.082;8.816;2024-02-15T13:10:19;101358.50;;;16.58;71.99
64889;BME280;51386;53.082;8.816;2024-02-15T13:12:48;101352.75;;;16.55;71.67
64889;BME280;51386;53.082;8.816;2024-02-15T13:15:16;101351.13;;;16.54;71.78
64889;BME280;51386;53.082;8.816;2024-02-15T13:17:47;101349.09;;;16.56;71.79
64889;BME280;51386;53.082;8.816;2024-02-15T13:20:23;101345.44;;;16.57;71.69